Time;durP1;ratioP1;P1;durP2;ratioP2;P2;SDS_P1;SDS_P2;PMS_P1;PMS_P2;Temp;Humidity;BMP_temperature;BMP_pressure;BME280_temperature;BME280_humidity;BME280_pressure;Samples;Min_cycle;Max_cycle;Signal;HPM_P1;HPM_P2
2021/04/20 00:00:59;;;;;;;3.40;3.10;;;;;;;;;;3547411;40;20492;-68
2021/04/20 00:03:25;;;;;;;3.83;3.42;;;;;;;;;;3552546;40;20401;-67
2021/04/20 00:05:51;;;;;;;4.65;3.20;;;;;;;;;;3556919;40;20492;-67
2021/04/20 00:08:17;;;;;;;5.65;3.38;;;;;;;;;;3554221;40;20386;-67
2021/04/20 00:10:44;;;;;;;4.47;3.90;;;;;;;;;;3556104;40;20696;-67
2021/04/20 00:13:12;;;;;;;5.33;3.60;;;;;;;;;;3553248;40;20397;-67
2021/04/20 00:15:38;;;;;;;4.43;3.38;;;;;;;;;;3558399;40;20400;-67
2021/04/20 00:18:05;;;;;;;3.90;3.50;;;;;;;;;;3556527;40;20367;-67
2021/04/20 00:20:31;;;;;;;4.00;3.33;;;;;;;;;;3555754;40;20407;-67
2021/04/20 00:22:58;;;;;;;3.78;3.40;;;;;;;;;;3556682;40;20368;-67
2021/04/20 00:25:24;;;;;;;4.00;3.47;;;;;;;;;;3557595;40;20399;-67
2021/04/20 00:27:51;;;;;;;3.50;3.10;;;;;;;;;;3557676;40;20400;-67
2021/04/20 00:30:18;;;;;;;3.85;3.45;;;;;;;;;;3557283;40;20383;-67
2021/04/20 00:32:44;;;;;;;5.38;3.42;;;;;;;;;;3549375;40;20419;-67
2021/04/20 00:35:12;;;;;;;4.05;3.63;;;;;;;;;;3547350;40;20403;-67
2021/04/20 00:37:39;;;;;;;4.35;3.60;;;;;;;;;;3554942;40;20395;-67
2021/04/20 00:40:07;;;;;;;4.20;3.80;;;;;;;;;;3556519;40;20761;-68
2021/04/20 00:42:44;;;;;;;3.75;3.45;;;;;;;;;;3555042;40;20379;-67
2021/04/20 00:45:12;;;;;;;3.53;3.22;;;;;;;;;;3553759;40;20722;-67
2021/04/20 00:47:38;;;;;;;3.58;3.15;;;;;;;;;;3552671;40;20457;-67
2021/04/20 00:50:05;;;;;;;4.50;4.10;;;;;;;;;;3556278;40;20360;-67
2021/04/20 00:52:31;;;;;;;4.15;3.63;;;;;;;;;;3547466;40;20400;-67
2021/04/20 00:54:58;;;;;;;4.30;3.80;;;;;;;;;;3555221;40;20518;-66
2021/04/20 00:57:24;;;;;;;3.78;3.47;;;;;;;;;;3556380;40;20398;-67
2021/04/20 00:59:50;;;;;;;4.57;4.07;;;;;;;;;;3556315;40;20776;-67
2021/04/20 01:04:46;;;;;;;4.18;3.45;;;;;;;;;;3557985;40;20407;-71
2021/04/20 01:07:13;;;;;;;3.53;3.20;;;;;;;;;;3549410;40;20499;-74
2021/04/20 01:09:39;;;;;;;3.90;3.50;;;;;;;;;;3558676;40;20351;-72
2021/04/20 01:12:06;;;;;;;4.35;3.75;;;;;;;;;;3558395;40;20685;-72
2021/04/20 01:14:32;;;;;;;5.03;3.85;;;;;;;;;;3538797;40;20400;-72
2021/04/20 01:16:59;;;;;;;4.55;3.75;;;;;;;;;;3548877;40;20798;-72
2021/04/20 01:19:26;;;;;;;4.00;3.60;;;;;;;;;;3547709;40;20786;-72
2021/04/20 01:21:55;;;;;;;4.07;3.30;;;;;;;;;;3558406;40;20439;-72
2021/04/20 01:24:24;;;;;;;3.73;3.43;;;;;;;;;;3559046;40;20842;-72
2021/04/20 01:26:53;;;;;;;4.00;3.63;;;;;;;;;;3558696;40;20403;-72
2021/04/20 01:29:21;;;;;;;3.80;3.43;;;;;;;;;;3557476;40;20953;-72
2021/04/20 01:31:47;;;;;;;4.23;3.70;;;;;;;;;;3548668;40;20416;-73
2021/04/20 01:34:14;;;;;;;3.72;3.42;;;;;;;;;;3557225;40;20367;-72
2021/04/20 01:36:40;;;;;;;4.75;3.88;;;;;;;;;;3558200;40;20400;-72
2021/04/20 01:39:08;;;;;;;5.32;3.80;;;;;;;;;;3558658;40;20367;-72
2021/04/20 01:41:36;;;;;;;3.88;3.55;;;;;;;;;;3558605;40;20420;-72
2021/04/20 01:44:02;;;;;;;3.83;3.40;;;;;;;;;;3558774;40;20364;-71
2021/04/20 01:46:29;;;;;;;5.38;3.63;;;;;;;;;;3558780;40;20796;-72
2021/04/20 01:48:55;;;;;;;4.13;3.60;;;;;;;;;;3558814;40;20371;-73
2021/04/20 01:51:22;;;;;;;5.43;3.80;;;;;;;;;;3549183;40;20772;-72
2021/04/20 01:53:48;;;;;;;4.07;3.45;;;;;;;;;;3558790;40;20359;-72
2021/04/20 01:56:15;;;;;;;3.90;3.50;;;;;;;;;;3558556;40;20733;-71
2021/04/20 01:58:43;;;;;;;4.68;3.88;;;;;;;;;;3549536;40;20452;-72
2021/04/20 02:01:10;;;;;;;3.88;3.50;;;;;;;;;;3558817;40;20359;-72
2021/04/20 02:03:36;;;;;;;4.00;3.35;;;;;;;;;;3558225;40;20679;-72
2021/04/20 02:06:03;;;;;;;4.03;3.42;;;;;;;;;;3559189;40;20375;-71
2021/04/20 02:08:29;;;;;;;4.10;3.70;;;;;;;;;;3558098;40;20407;-72
2021/04/20 02:10:57;;;;;;;4.53;3.63;;;;;;;;;;3560064;40;20458;-72
2021/04/20 02:13:23;;;;;;;3.85;3.45;;;;;;;;;;3558706;40;20803;-72
2021/04/20 02:15:51;;;;;;;5.25;3.50;;;;;;;;;;3558791;40;20427;-72
2021/04/20 02:18:19;;;;;;;4.00;3.10;;;;;;;;;;3550102;40;20365;-72
2021/04/20 02:20:46;;;;;;;4.50;3.63;;;;;;;;;;3550410;40;20357;-72
2021/04/20 02:23:12;;;;;;;4.10;3.40;;;;;;;;;;3550752;40;20377;-72
2021/04/20 02:25:39;;;;;;;3.95;3.40;;;;;;;;;;3551200;40;20623;-73
2021/04/20 02:28:05;;;;;;;3.45;3.15;;;;;;;;;;3550804;40;20353;-72
2021/04/20 02:30:32;;;;;;;3.70;3.38;;;;;;;;;;3541728;40;20412;-72
2021/04/20 02:32:59;;;;;;;3.70;3.40;;;;;;;;;;3551093;40;20353;-72
2021/04/20 02:35:28;;;;;;;3.60;3.30;;;;;;;;;;3550462;40;20381;-72
2021/04/20 02:37:54;;;;;;;4.75;3.50;;;;;;;;;;3550493;40;20451;-72
2021/04/20 02:40:22;;;;;;;4.10;3.30;;;;;;;;;;3548172;40;20413;-73
2021/04/20 02:42:48;;;;;;;3.63;3.13;;;;;;;;;;3542646;40;20409;-72
2021/04/20 02:45:15;;;;;;;4.07;3.00;;;;;;;;;;3551874;40;20363;-72
2021/04/20 02:47:41;;;;;;;4.03;3.40;;;;;;;;;;3551721;40;20405;-72
2021/04/20 02:50:10;;;;;;;3.63;3.10;;;;;;;;;;3551780;40;20794;-71
2021/04/20 02:52:36;;;;;;;4.13;3.60;;;;;;;;;;3542041;40;20386;-73
2021/04/20 02:55:04;;;;;;;4.10;3.40;;;;;;;;;;3541627;40;20367;-71
2021/04/20 02:57:30;;;;;;;3.53;3.13;;;;;;;;;;3539538;40;20406;-70
2021/04/20 02:59:57;;;;;;;4.35;3.38;;;;;;;;;;3540587;40;20371;-71
2021/04/20 03:02:23;;;;;;;3.47;3.05;;;;;;;;;;3540429;40;20719;-71
2021/04/20 03:04:51;;;;;;;3.67;3.23;;;;;;;;;;3539838;40;20540;-70
2021/04/20 03:07:18;;;;;;;4.03;3.25;;;;;;;;;;3530746;40;20359;-70
2021/04/20 03:09:44;;;;;;;3.30;3.00;;;;;;;;;;3529442;40;20415;-71
2021/04/20 03:12:11;;;;;;;3.50;3.20;;;;;;;;;;3530614;40;20431;-70
2021/04/20 03:14:39;;;;;;;4.40;3.40;;;;;;;;;;3529627;40;20499;-72
2021/04/20 03:17:05;;;;;;;5.40;4.63;;;;;;;;;;3530871;40;20363;-70
2021/04/20 03:19:31;;;;;;;4.57;3.90;;;;;;;;;;3529472;40;20765;-71
2021/04/20 03:21:58;;;;;;;3.55;3.10;;;;;;;;;;3529617;40;20463;-70
2021/04/20 03:24:39;;;;;;;3.58;3.03;;;;;;;;;;3530887;40;20357;-71
2021/04/20 03:27:07;;;;;;;3.33;2.70;;;;;;;;;;3499812;41;20377;-71
2021/04/20 03:29:34;;;;;;;3.08;2.72;;;;;;;;;;3499765;41;20424;-71
2021/04/20 03:32:00;;;;;;;3.42;3.03;;;;;;;;;;3499988;41;20425;-71
2021/04/20 03:34:31;;;;;;;3.22;2.92;;;;;;;;;;3499782;41;20413;-71
2021/04/20 03:36:59;;;;;;;3.80;3.17;;;;;;;;;;3500214;41;20369;-72
2021/04/20 03:39:26;;;;;;;3.60;3.00;;;;;;;;;;3499835;41;20374;-71
2021/04/20 03:41:55;;;;;;;3.30;3.00;;;;;;;;;;3499840;41;20409;-71
2021/04/20 03:44:25;;;;;;;3.20;2.90;;;;;;;;;;3500087;41;20500;-71
2021/04/20 03:46:53;;;;;;;3.08;2.75;;;;;;;;;;3509814;41;20474;-70
2021/04/20 03:49:22;;;;;;;3.45;2.45;;;;;;;;;;3509627;41;20427;-71
2021/04/20 03:51:51;;;;;;;3.05;2.75;;;;;;;;;;3509203;41;20516;-70
2021/04/20 03:54:17;;;;;;;3.10;2.80;;;;;;;;;;3509360;41;20451;-70
2021/04/20 03:56:44;;;;;;;3.05;2.53;;;;;;;;;;3509687;41;20642;-71
2021/04/20 03:59:12;;;;;;;2.70;2.50;;;;;;;;;;3509475;41;20360;-72
2021/04/20 04:01:40;;;;;;;3.15;2.50;;;;;;;;;;3509526;41;20375;-71
2021/04/20 04:04:08;;;;;;;3.30;2.50;;;;;;;;;;3522437;40;20683;-71
2021/04/20 04:06:35;;;;;;;3.33;3.03;;;;;;;;;;3546382;40;20387;-72
2021/04/20 04:09:02;;;;;;;3.42;2.90;;;;;;;;;;3540170;40;20371;-71
2021/04/20 04:11:31;;;;;;;3.10;2.78;;;;;;;;;;3539861;40;20414;-70
2021/04/20 04:13:58;;;;;;;3.80;3.00;;;;;;;;;;3540061;40;20359;-71
2021/04/20 04:16:25;;;;;;;2.75;2.30;;;;;;;;;;3531207;40;20362;-70
2021/04/20 04:18:53;;;;;;;3.30;2.70;;;;;;;;;;3540028;40;20410;-71
2021/04/20 04:21:21;;;;;;;2.92;2.30;;;;;;;;;;3540074;40;20399;-71
2021/04/20 04:23:50;;;;;;;3.67;2.25;;;;;;;;;;3539803;40;20820;-71
2021/04/20 04:26:19;;;;;;;4.25;2.70;;;;;;;;;;3540294;40;20351;-71
2021/04/20 04:28:49;;;;;;;2.50;2.22;;;;;;;;;;3540108;40;20744;-71
2021/04/20 04:31:15;;;;;;;3.03;2.30;;;;;;;;;;3538675;40;20399;-71
2021/04/20 04:33:42;;;;;;;2.97;2.65;;;;;;;;;;3540119;40;20355;-70
2021/04/20 04:36:10;;;;;;;2.20;1.92;;;;;;;;;;3531173;40;20736;-71
2021/04/20 04:38:37;;;;;;;2.70;2.30;;;;;;;;;;3540268;40;20363;-70
2021/04/20 04:41:04;;;;;;;2.43;2.07;;;;;;;;;;3540170;40;20481;-70
2021/04/20 04:43:30;;;;;;;2.63;2.10;;;;;;;;;;3539882;40;20410;-71
2021/04/20 04:45:56;;;;;;;2.90;2.50;;;;;;;;;;3538926;40;20403;-71
2021/04/20 04:48:23;;;;;;;4.10;2.20;;;;;;;;;;3539899;40;20885;-71
2021/04/20 04:50:50;;;;;;;2.28;2.08;;;;;;;;;;3538425;40;20536;-71
2021/04/20 04:53:18;;;;;;;2.83;2.17;;;;;;;;;;3540181;40;20386;-71
2021/04/20 04:55:44;;;;;;;2.50;2.30;;;;;;;;;;3539991;40;20367;-71
2021/04/20 04:58:11;;;;;;;2.60;1.98;;;;;;;;;;3539007;40;20414;-71
2021/04/20 05:00:37;;;;;;;2.63;1.88;;;;;;;;;;3530902;40;20403;-71
2021/04/20 05:03:05;;;;;;;2.08;1.80;;;;;;;;;;3539964;40;20489;-71
2021/04/20 05:05:32;;;;;;;2.97;1.90;;;;;;;;;;3539852;40;20366;-71
2021/04/20 05:07:58;;;;;;;2.27;1.80;;;;;;;;;;3544933;40;20732;-71
2021/04/20 05:10:26;;;;;;;2.03;1.83;;;;;;;;;;3550351;40;20353;-71
2021/04/20 05:12:52;;;;;;;2.20;1.80;;;;;;;;;;3530628;40;20497;-72
2021/04/20 05:15:20;;;;;;;2.60;1.80;;;;;;;;;;3539846;40;20756;-70
2021/04/20 05:17:48;;;;;;;2.00;1.67;;;;;;;;;;3539632;40;20433;-70
2021/04/20 05:20:17;;;;;;;2.30;1.83;;;;;;;;;;3538401;40;20402;-72
2021/04/20 05:22:43;;;;;;;2.17;1.70;;;;;;;;;;3539781;40;20739;-71
2021/04/20 05:25:10;;;;;;;2.50;2.00;;;;;;;;;;3537430;40;20481;-71
2021/04/20 05:27:37;;;;;;;3.80;2.03;;;;;;;;;;3540591;40;20640;-71
2021/04/20 05:30:04;;;;;;;2.05;1.65;;;;;;;;;;3538971;40;20418;-72
2021/04/20 05:32:31;;;;;;;3.17;2.33;;;;;;;;;;3540163;40;20461;-72
2021/04/20 05:34:59;;;;;;;2.50;2.15;;;;;;;;;;3540114;40;20711;-71
2021/04/20 05:37:29;;;;;;;3.10;2.10;;;;;;;;;;3540103;40;20729;-72
2021/04/20 05:39:55;;;;;;;2.30;1.98;;;;;;;;;;3540040;40;20653;-71
2021/04/20 05:42:22;;;;;;;1.95;1.75;;;;;;;;;;3529870;40;20416;-71
2021/04/20 05:44:49;;;;;;;2.53;2.00;;;;;;;;;;3530834;40;20412;-72
2021/04/20 05:47:15;;;;;;;2.90;1.80;;;;;;;;;;3520414;40;20477;-72
2021/04/20 05:49:41;;;;;;;2.63;1.77;;;;;;;;;;3520260;40;20381;-71
2021/04/20 05:52:08;;;;;;;2.40;1.93;;;;;;;;;;3520463;40;20957;-71
2021/04/20 05:54:34;;;;;;;2.85;1.92;;;;;;;;;;3512870;40;20358;-71
2021/04/20 05:57:00;;;;;;;2.25;1.80;;;;;;;;;;3520290;40;20409;-72
2021/04/20 05:59:26;;;;;;;2.55;1.65;;;;;;;;;;3520239;40;20430;-71
2021/04/20 06:01:53;;;;;;;3.47;1.90;;;;;;;;;;3520497;40;20414;-71
2021/04/20 06:04:20;;;;;;;2.30;2.10;;;;;;;;;;3520384;40;20425;-72
2021/04/20 06:06:46;;;;;;;3.58;1.65;;;;;;;;;;3520138;40;20382;-71
2021/04/20 06:09:12;;;;;;;3.33;1.80;;;;;;;;;;3518941;40;20444;-74
2021/04/20 06:11:39;;;;;;;2.67;1.80;;;;;;;;;;3522160;40;20881;-73
2021/04/20 06:14:06;;;;;;;2.28;1.95;;;;;;;;;;3522010;40;20351;-72
2021/04/20 06:16:32;;;;;;;2.20;1.52;;;;;;;;;;3520682;40;20378;-72
2021/04/20 06:18:59;;;;;;;2.80;1.70;;;;;;;;;;3536218;40;20445;-72
2021/04/20 06:21:26;;;;;;;2.08;1.45;;;;;;;;;;3549540;40;20365;-71
2021/04/20 06:23:53;;;;;;;3.10;1.70;;;;;;;;;;3550090;40;20420;-70
2021/04/20 06:26:19;;;;;;;2.38;1.60;;;;;;;;;;3550208;40;20774;-71
2021/04/20 06:28:46;;;;;;;2.88;1.52;;;;;;;;;;3542057;40;20772;-71
2021/04/20 06:31:14;;;;;;;2.45;1.88;;;;;;;;;;3541928;40;20408;-73
2021/04/20 06:33:41;;;;;;;2.17;1.50;;;;;;;;;;3551355;40;20358;-73
2021/04/20 06:36:09;;;;;;;2.57;1.67;;;;;;;;;;3551391;40;20747;-73
2021/04/20 06:38:37;;;;;;;2.28;1.60;;;;;;;;;;3551586;40;20369;-72
2021/04/20 06:41:04;;;;;;;2.50;1.80;;;;;;;;;;3551634;40;20764;-72
2021/04/20 06:43:35;;;;;;;2.15;1.70;;;;;;;;;;3551185;40;20720;-72
2021/04/20 06:46:03;;;;;;;2.13;1.50;;;;;;;;;;3551338;40;20354;-72
2021/04/20 06:48:36;;;;;;;1.90;1.60;;;;;;;;;;3551500;40;20482;-72
2021/04/20 06:51:04;;;;;;;2.08;1.60;;;;;;;;;;3539549;40;20403;-71
2021/04/20 06:53:33;;;;;;;2.47;1.45;;;;;;;;;;3539312;40;20371;-71
2021/04/20 06:56:07;;;;;;;2.55;1.85;;;;;;;;;;3539948;40;20849;-72
2021/04/20 06:58:38;;;;;;;2.67;1.45;;;;;;;;;;3539720;40;20414;-72
2021/04/20 07:01:07;;;;;;;1.65;1.42;;;;;;;;;;3539945;40;20426;-72
2021/04/20 07:03:38;;;;;;;2.20;1.40;;;;;;;;;;3539652;40;20402;-73
2021/04/20 07:06:07;;;;;;;3.00;1.57;;;;;;;;;;3539524;40;20430;-71
2021/04/20 07:08:40;;;;;;;2.17;1.50;;;;;;;;;;3539928;40;20755;-72
2021/04/20 07:11:07;;;;;;;2.45;1.40;;;;;;;;;;3537630;40;20847;-72
2021/04/20 07:13:36;;;;;;;1.73;1.60;;;;;;;;;;3530530;40;20373;-72
2021/04/20 07:16:06;;;;;;;2.70;1.80;;;;;;;;;;3530002;40;20381;-72
2021/04/20 07:18:47;;;;;;;3.10;2.45;;;;;;;;;;3530692;40;20414;-72
2021/04/20 07:21:21;;;;;;;4.47;3.22;;;;;;;;;;3531974;40;20374;-72
2021/04/20 07:23:55;;;;;;;4.50;3.47;;;;;;;;;;3541918;40;20363;-71
2021/04/20 07:26:33;;;;;;;6.00;4.45;;;;;;;;;;3541426;40;20378;-72
2021/04/20 07:29:07;;;;;;;6.10;4.60;;;;;;;;;;3540541;40;20403;-72
2021/04/20 07:31:37;;;;;;;9.52;7.13;;;;;;;;;;3531036;40;20653;-71
2021/04/20 07:34:09;;;;;;;7.85;6.35;;;;;;;;;;3530865;40;20619;-72
2021/04/20 07:36:41;;;;;;;10.27;6.78;;;;;;;;;;3530937;40;20367;-72
2021/04/20 07:39:10;;;;;;;7.88;5.95;;;;;;;;;;3530970;40;20405;-72
2021/04/20 07:41:38;;;;;;;11.80;8.15;;;;;;;;;;3531160;40;20357;-73
2021/04/20 07:44:08;;;;;;;11.85;8.48;;;;;;;;;;3530878;40;20360;-71
2021/04/20 07:46:39;;;;;;;12.57;8.77;;;;;;;;;;3531241;40;20403;-72
2021/04/20 07:49:10;;;;;;;10.87;8.63;;;;;;;;;;3539610;40;20446;-72
2021/04/20 07:51:40;;;;;;;12.07;9.82;;;;;;;;;;3519225;40;20768;-71
2021/04/20 07:54:09;;;;;;;11.05;8.90;;;;;;;;;;3519333;40;20381;-71
2021/04/20 07:56:44;;;;;;;12.73;9.45;;;;;;;;;;3519045;40;20462;-72
2021/04/20 07:59:12;;;;;;;12.67;9.30;;;;;;;;;;3519127;40;20430;-72
2021/04/20 08:01:44;;;;;;;12.15;8.82;;;;;;;;;;3519474;40;20374;-72
2021/04/20 08:04:22;;;;;;;13.80;9.65;;;13.10;73.90;;;;;;3519307;40;20414;-73
2021/04/20 08:06:51;;;;;;;12.63;8.93;;;14.40;72.80;;;;;;3518580;40;20390;-72
2021/04/20 08:09:21;;;;;;;12.88;9.20;;;;;;;;;;3519455;40;20402;-72
2021/04/20 08:11:50;;;;;;;12.38;9.15;;;;;;;;;;3521252;40;20412;-71
2021/04/20 08:14:25;;;;;;;11.50;8.48;;;;;;;;;;3519628;40;20676;-72
2021/04/20 08:16:52;;;;;;;11.45;8.88;;;;;;;;;;3519520;40;20385;-72
2021/04/20 08:19:22;;;;;;;13.32;9.63;;;;;;;;;;3519517;40;20362;-72
2021/04/20 08:21:49;;;;;;;13.60;9.10;;;;;;;;;;3521411;40;20384;-71
2021/04/20 08:24:18;;;;;;;12.30;8.57;;;;;;;;;;3530627;40;20608;-71
2021/04/20 08:26:48;;;;;;;10.52;7.68;;;;;;;;;;3530828;40;20357;-72
2021/04/20 08:29:20;;;;;;;14.35;9.32;;;;;;;;;;3529815;40;20777;-72
2021/04/20 08:31:49;;;;;;;13.15;8.55;;;;;;;;;;3530397;40;20397;-72
2021/04/20 08:34:19;;;;;;;11.70;8.73;;;;;;;;;;3529756;40;20404;-71
2021/04/20 08:36:52;;;;;;;11.90;9.20;;;;;;;;;;3530093;40;20361;-71
2021/04/20 08:39:21;;;;;;;12.20;9.23;;;;;;;;;;3529488;40;20404;-71
2021/04/20 08:41:57;;;;;;;10.10;8.05;;;14.30;72.70;;;;;;3538735;40;20477;-72
2021/04/20 08:44:29;;;;;;;11.98;8.95;;;;;;;;;;3538102;40;20414;-72
2021/04/20 08:46:58;;;;;;;10.40;7.85;;;;;;;;;;3539032;40;20387;-71
2021/04/20 08:49:36;;;;;;;12.57;8.32;;;15.60;68.20;;;;;;3538309;40;20873;-72
2021/04/20 08:52:04;;;;;;;10.90;8.73;;;;;;;;;;3528426;40;20404;-72
2021/04/20 08:54:38;;;;;;;11.00;8.32;;;;;;;;;;3519096;40;20417;-72
2021/04/20 08:59:50;;;;;;;11.95;8.10;;;;;;;;;;3565940;40;20435;-72
2021/04/20 09:02:31;;;;;;;10.23;8.05;;;16.30;66.70;;;;;;3570120;40;20441;-74
2021/04/20 09:05:20;;;;;;;10.40;7.45;;;16.30;66.50;;;;;;3577908;40;20371;-71
2021/04/20 09:07:56;;;;;;;10.10;7.93;;;16.50;65.50;;;;;;3579035;40;20353;-71
2021/04/20 09:10:27;;;;;;;13.30;8.80;;;16.60;64.90;;;;;;3567427;40;20378;-72
2021/04/20 09:13:01;;;;;;;11.52;9.05;;;16.50;65.90;;;;;;3568688;40;20393;-72
2021/04/20 09:15:32;;;;;;;11.50;8.88;;;16.50;64.60;;;;;;3567337;40;21859;-72
2021/04/20 09:18:04;;;;;;;11.25;8.30;;;16.80;66.90;;;;;;3557584;40;20430;-71
2021/04/20 09:20:38;;;;;;;11.87;8.17;;;16.80;64.40;;;;;;3558749;40;20360;-72
2021/04/20 09:23:08;;;;;;;11.25;9.07;;;16.60;62.20;;;;;;3558445;40;20383;-72
2021/04/20 09:25:42;;;;;;;12.23;8.73;;;16.90;62.90;;;;;;3558636;40;20734;-71
2021/04/20 09:28:15;;;;;;;13.25;9.23;;;16.90;63.20;;;;;;3558890;40;20785;-72
2021/04/20 09:30:44;;;;;;;10.13;7.95;;;;;;;;;;3558892;40;20370;-72
2021/04/20 09:33:14;;;;;;;12.00;9.07;;;;;;;;;;3549307;40;20411;-72
2021/04/20 09:35:41;;;;;;;12.23;8.85;;;17.10;63.20;;;;;;3558785;40;20391;-73
2021/04/20 09:38:11;;;;;;;11.80;8.85;;;17.50;63.00;;;;;;3558726;40;20391;-71
2021/04/20 09:40:39;;;;;;;12.90;9.40;;;17.60;60.70;;;;;;3558327;40;20363;-71
2021/04/20 09:43:10;;;;;;;11.18;9.00;;;;;;;;;;3558606;40;20375;-71
2021/04/20 09:45:39;;;;;;;11.80;9.35;;;;;;;;;;3558860;40;20726;-71
2021/04/20 09:48:15;;;;;;;12.40;9.30;;;;;;;;;;3558849;40;20392;-72
2021/04/20 09:50:52;;;;;;;12.10;9.52;;;17.70;62.20;;;;;;3563243;40;20374;-72
2021/04/20 09:53:26;;;;;;;13.00;10.13;;;18.10;58.90;;;;;;3558392;40;20360;-71
2021/04/20 09:56:04;;;;;;;11.77;9.27;;;18.00;61.00;;;;;;3558599;40;20827;-71
2021/04/20 09:58:32;;;;;;;14.30;10.50;;;;;;;;;;3558235;40;20355;-71
2021/04/20 10:01:13;;;;;;;14.65;10.77;;;18.10;60.30;;;;;;3557912;40;20422;-72
2021/04/20 10:03:51;;;;;;;15.70;11.90;;;18.50;58.40;;;;;;3558614;40;20402;-73
2021/04/20 10:06:37;;;;;;;16.98;11.20;;;18.10;57.70;;;;;;3558414;40;20355;-73
2021/04/20 10:09:12;;;;;;;15.25;11.27;;;17.90;58.90;;;;;;3547745;40;20488;-72
2021/04/20 10:11:47;;;;;;;16.38;11.13;;;18.00;59.30;;;;;;3558101;40;20462;-70
2021/04/20 10:14:27;;;;;;;16.13;11.93;;;18.20;57.90;;;;;;3567127;40;20380;-71
2021/04/20 10:17:03;;;;;;;17.23;12.43;;;18.30;60.80;;;;;;3567948;40;20397;-71
2021/04/20 10:19:37;;;;;;;18.23;12.45;;;17.90;57.30;;;;;;3568073;40;20440;-71
2021/04/20 10:22:21;;;;;;;15.95;11.90;;;17.90;60.90;;;;;;3567989;40;20354;-71
2021/04/20 10:24:58;;;;;;;15.77;10.93;;;18.00;60.00;;;;;;3558387;40;20360;-71
2021/04/20 10:27:26;;;;;;;16.23;12.35;;;;;;;;;;3557869;40;20481;-71
2021/04/20 10:30:00;;;;;;;18.02;12.68;;;18.30;58.20;;;;;;3554952;40;20404;-71
2021/04/20 10:32:30;;;;;;;15.93;11.50;;;18.60;55.40;;;;;;3572591;40;20525;-71
2021/04/20 10:34:59;;;;;;;16.97;12.37;;;18.40;55.60;;;;;;3559709;40;20365;-70
2021/04/20 10:37:31;;;;;;;16.58;11.00;;;18.10;57.10;;;;;;3548399;40;20543;-72
2021/04/20 10:39:59;;;;;;;15.15;10.98;;;18.30;58.20;;;;;;3559280;40;20815;-71
2021/04/20 10:42:27;;;;;;;15.47;11.10;;;18.60;57.80;;;;;;3547987;40;20413;-71
2021/04/20 10:44:55;;;;;;;16.65;11.70;;;18.60;54.10;;;;;;3554520;40;20359;-71
2021/04/20 10:47:22;;;;;;;14.05;10.23;;;18.40;55.40;;;;;;3553398;40;20481;-71
2021/04/20 10:49:51;;;;;;;16.45;11.30;;;18.50;57.80;;;;;;3569451;40;20639;-71
2021/04/20 10:52:19;;;;;;;16.25;10.85;;;;;;;;;;3566338;40;20457;-72
2021/04/20 10:54:46;;;;;;;17.48;12.55;;;;;;;;;;3569528;40;20370;-71
2021/04/20 10:57:13;;;;;;;16.38;12.57;;;;;;;;;;3571707;40;20746;-71
2021/04/20 10:59:41;;;;;;;15.88;11.60;;;;;;;;;;3579532;40;20408;-74
2021/04/20 11:02:10;;;;;;;15.73;11.23;;;;;;;;;;3576357;40;20619;-71
2021/04/20 11:04:37;;;;;;;13.85;11.23;;;;;;;;;;3557872;40;20486;-71
2021/04/20 11:07:17;;;;;;;14.18;10.77;;;;;;;;;;3560233;40;20348;-71
2021/04/20 11:09:45;;;;;;;14.00;10.48;;;;;;;;;;3559242;40;20371;-71
2021/04/20 11:12:12;;;;;;;13.70;10.70;;;;;;;;;;3559140;40;20768;-71
2021/04/20 11:14:39;;;;;;;16.08;10.30;;;;;;;;;;3549675;40;20377;-70
2021/04/20 11:17:08;;;;;;;15.38;11.13;;;;;;;;;;3557543;40;20781;-71
2021/04/20 11:19:36;;;;;;;13.73;10.88;;;;;;;;;;3559405;40;20368;-71
2021/04/20 11:22:04;;;;;;;14.45;10.07;;;;;;;;;;3559245;40;20358;-72
2021/04/20 11:24:35;;;;;;;13.57;10.27;;;19.60;56.70;;;;;;3559072;40;20384;-71
2021/04/20 11:27:09;;;;;;;12.25;9.70;;;20.00;52.60;;;;;;3557985;40;20485;-71
2021/04/20 11:29:37;;;;;;;12.88;9.27;;;;;;;;;;3544689;40;20404;-71
2021/04/20 11:32:05;;;;;;;12.20;8.63;;;;;;;;;;3554945;40;20762;-72
2021/04/20 11:34:33;;;;;;;11.02;8.30;;;;;;;;;;3553860;40;20826;-71
2021/04/20 11:37:02;;;;;;;10.85;8.50;;;;;;;;;;3557833;40;20399;-71
2021/04/20 11:39:30;;;;;;;14.88;10.00;;;;;;;;;;3559003;40;20737;-71
2021/04/20 11:41:59;;;;;;;16.70;10.68;;;20.80;49.90;;;;;;3559336;40;20375;-71
2021/04/20 11:44:33;;;;;;;14.45;10.60;;;20.80;50.60;;;;;;3550072;40;20409;-71
2021/04/20 11:46:59;;;;;;;15.15;10.95;;;20.70;50.20;;;;;;3554028;40;20386;-72
2021/04/20 11:49:29;;;;;;;13.80;11.00;;;20.40;50.90;;;;;;3558612;40;20371;-72
2021/04/20 11:51:56;;;;;;;13.40;9.40;;;;;;;;;;3556697;40;21181;-72
2021/04/20 11:54:23;;;;;;;15.25;10.75;;;;;;;;;;3547808;40;20405;-72
2021/04/20 11:56:50;;;;;;;15.93;10.38;;;;;;;;;;3557606;40;20383;-71
2021/04/20 11:59:19;;;;;;;11.38;9.25;;;20.10;50.90;;;;;;3557427;40;20549;-71
2021/04/20 12:01:48;;;;;;;12.35;8.98;;;20.70;50.20;;;;;;3556546;40;20792;-71
2021/04/20 12:04:15;;;;;;;13.35;9.23;;;;;;;;;;3566177;40;20683;-71
2021/04/20 12:06:44;;;;;;;14.50;10.15;;;;;;;;;;3566948;40;20420;-71
2021/04/20 12:09:14;;;;;;;13.85;9.68;;;;;;;;;;3568604;40;20358;-71
2021/04/20 12:11:41;;;;;;;9.93;8.17;;;;;;;;;;3564811;40;20387;-71
2021/04/20 12:14:07;;;;;;;9.65;7.68;;;;;;;;;;3549770;40;20407;-71
2021/04/20 12:16:34;;;;;;;10.27;7.55;;;;;;;;;;3558854;40;20457;-73
2021/04/20 12:19:01;;;;;;;10.77;8.18;;;;;;;;;;3562996;40;20399;-72
2021/04/20 12:21:29;;;;;;;7.68;6.22;;;;;;;;;;3560813;40;20433;-72
2021/04/20 12:23:56;;;;;;;7.55;6.05;;;;;;;;;;3565067;40;20381;-72
2021/04/20 12:26:22;;;;;;;8.32;6.75;;;;;;;;;;3558714;40;20411;-71
2021/04/20 12:28:49;;;;;;;10.27;7.65;;;;;;;;;;3567472;40;20361;-72
2021/04/20 12:31:16;;;;;;;8.63;6.25;;;21.00;50.00;;;;;;3568680;40;20362;-72
2021/04/20 12:33:46;;;;;;;8.80;6.88;;;;;;;;;;3568702;40;20451;-72
2021/04/20 12:36:23;;;;;;;7.50;6.30;;;;;;;;;;3568325;40;20435;-72
2021/04/20 12:38:49;;;;;;;6.90;5.30;;;;;;;;;;3568806;40;20749;-74
2021/04/20 12:41:16;;;;;;;7.22;5.60;;;;;;;;;;3566352;40;20371;-72
2021/04/20 12:43:43;;;;;;;10.90;6.30;;;;;;;;;;3549129;40;20753;-72
2021/04/20 12:46:10;;;;;;;6.85;5.75;;;;;;;;;;3563958;40;20383;-71
2021/04/20 12:48:38;;;;;;;8.05;5.63;;;;;;;;;;3558751;40;20368;-72
2021/04/20 12:51:06;;;;;;;6.43;5.07;;;;;;;;;;3565779;40;20714;-72
2021/04/20 12:53:34;;;;;;;6.72;5.32;;;;;;;;;;3568302;40;20628;-72
2021/04/20 12:56:02;;;;;;;9.52;4.80;;;;;;;;;;3568973;40;20650;-72
2021/04/20 12:58:30;;;;;;;6.05;4.82;;;;;;;;;;3558050;40;20519;-73
2021/04/20 13:01:00;;;;;;;6.18;4.40;;;;;;;;;;3558751;40;20415;-72
2021/04/20 13:03:28;;;;;;;4.90;4.32;;;;;;;;;;3568109;40;20406;-72
2021/04/20 13:05:55;;;;;;;7.32;5.00;;;;;;;;;;3558960;40;20371;-72
2021/04/20 13:08:22;;;;;;;6.40;4.72;;;;;;;;;;3558584;40;20399;-71
2021/04/20 13:10:54;;;;;;;5.85;4.30;;;;;;;;;;3558392;40;20375;-71
2021/04/20 13:13:23;;;;;;;5.65;3.80;;;;;;;;;;3557955;40;20387;-72
2021/04/20 13:15:49;;;;;;;5.43;4.35;;;;;;;;;;3557904;40;20630;-71
2021/04/20 13:18:17;;;;;;;5.20;3.90;;;;;;;;;;3558183;40;20355;-72
2021/04/20 13:20:46;;;;;;;5.90;4.40;;;;;;;;;;3564905;40;20363;-70
2021/04/20 13:23:19;;;;;;;6.07;4.30;;;;;;;;;;3558064;40;20393;-71
2021/04/20 13:25:48;;;;;;;5.45;3.60;;;;;;;;;;3558457;40;20356;-73
2021/04/20 13:28:15;;;;;;;7.07;4.47;;;;;;;;;;3558392;40;20839;-73
2021/04/20 13:30:41;;;;;;;5.60;4.15;;;;;;;;;;3558525;40;20395;-72
2021/04/20 13:33:08;;;;;;;4.40;3.20;;;;;;;;;;3548907;40;20410;-73
2021/04/20 13:35:35;;;;;;;4.00;3.43;;;;;;;;;;3549058;40;20441;-73
2021/04/20 13:38:02;;;;;;;4.68;3.38;;;;;;;;;;3557751;40;20359;-70
2021/04/20 13:40:31;;;;;;;4.72;3.80;;;;;;;;;;3557904;40;20700;-71
2021/04/20 13:42:58;;;;;;;5.07;3.27;;;;;;;;;;3557793;40;20360;-72
2021/04/20 13:45:28;;;;;;;4.97;3.63;;;;;;;;;;3558075;40;20401;-72
2021/04/20 13:47:55;;;;;;;3.97;3.58;;;;;;;;;;3557914;40;20371;-72
2021/04/20 13:50:25;;;;;;;3.88;3.30;;;;;;;;;;3558281;40;20348;-72
2021/04/20 13:52:53;;;;;;;4.67;2.97;;;;;;;;;;3558329;40;20372;-72
2021/04/20 13:55:23;;;;;;;4.15;2.72;;;;;;;;;;3548994;40;20547;-71
2021/04/20 13:57:51;;;;;;;3.40;3.03;;;;;;;;;;3559253;40;20418;-72
2021/04/20 14:00:21;;;;;;;2.57;2.37;;;;;;;;;;3548452;40;20530;-72
2021/04/20 14:02:53;;;;;;;3.50;2.90;;;;;;;;;;3555366;40;20747;-72
2021/04/20 14:05:24;;;;;;;5.30;3.83;;;;;;;;;;3565146;40;20406;-71
2021/04/20 14:07:53;;;;;;;5.07;4.20;;;;;;;;;;3569636;40;20487;-72
2021/04/20 14:10:20;;;;;;;5.50;4.10;;;;;;;;;;3569527;40;20350;-72
2021/04/20 14:12:48;;;;;;;4.57;3.90;;;;;;;;;;3559319;40;20411;-72
2021/04/20 14:15:17;;;;;;;5.32;4.57;;;;;;;;;;3568820;40;20432;-72
2021/04/20 14:17:47;;;;;;;4.97;3.60;;;;;;;;;;3554935;40;20756;-71
2021/04/20 14:20:16;;;;;;;4.80;3.30;;;;;;;;;;3559698;40;20476;-71
2021/04/20 14:22:43;;;;;;;5.13;3.90;;;;;;;;;;3557678;40;20419;-72
2021/04/20 14:25:10;;;;;;;5.30;4.43;;;;;;;;;;3558508;40;20779;-71
2021/04/20 14:27:36;;;;;;;7.80;4.10;;;;;;;;;;3547138;40;20480;-71
2021/04/20 14:30:05;;;;;;;5.25;4.13;;;;;;;;;;3539567;40;20698;-71
2021/04/20 14:32:35;;;;;;;5.10;3.80;;;22.80;40.60;;;;;;3547787;40;20870;-71